sensor_id;sensor_type;location;lat;lon;timestamp;P1;durP1;ratioP1;P2;durP2;ratioP2
53915;SDS011;39827;49.652;18.770;2022-10-16T00:01:38;13.60;;;6.50;;
53915;SDS011;39827;49.652;18.770;2022-10-16T00:04:04;14.07;;;7.20;;
53915;SDS011;39827;49.652;18.770;2022-10-16T00:06:30;17.95;;;7.53;;
53915;SDS011;39827;49.652;18.770;2022-10-16T00:08:55;15.68;;;7.15;;
53915;SDS011;39827;49.652;18.770;2022-10-16T00:11:26;12.10;;;6.90;;
53915;SDS011;39827;49.652;18.770;2022-10-16T00:14:01;15.60;;;7.15;;
53915;SDS011;39827;49.652;18.770;2022-10-16T00:16:28;12.65;;;7.53;;
53915;SDS011;39827;49.652;18.770;2022-10-16T00:18:54;12.88;;;7.20;;
53915;SDS011;39827;49.652;18.770;2022-10-16T00:21:20;11.70;;;7.00;;
53915;SDS011;39827;49.652;18.770;2022-10-16T00:23:51;12.63;;;7.30;;
53915;SDS011;39827;49.652;18.770;2022-10-16T00:26:28;17.30;;;7.47;;
53915;SDS011;39827;49.652;18.770;2022-10-16T00:28:54;14.07;;;7.30;;
53915;SDS011;39827;49.652;18.770;2022-10-16T00:31:20;15.32;;;7.53;;
53915;SDS011;39827;49.652;18.770;2022-10-16T00:33:47;14.52;;;7.53;;
53915;SDS011;39827;49.652;18.770;2022-10-16T00:36:13;13.55;;;7.32;;
53915;SDS011;39827;49.652;18.770;2022-10-16T00:38:41;13.02;;;7.65;;
53915;SDS011;39827;49.652;18.770;2022-10-16T00:41:07;14.23;;;7.53;;
53915;SDS011;39827;49.652;18.770;2022-10-16T00:46:14;14.32;;;7.30;;
53915;SDS011;39827;49.652;18.770;2022-10-16T00:48:40;14.98;;;6.75;;
53915;SDS011;39827;49.652;18.770;2022-10-16T00:51:06;12.70;;;7.25;;
53915;SDS011;39827;49.652;18.770;2022-10-16T00:53:33;13.90;;;7.32;;
53915;SDS011;39827;49.652;18.770;2022-10-16T00:55:59;17.00;;;6.90;;
53915;SDS011;39827;49.652;18.770;2022-10-16T00:58:25;16.45;;;7.57;;
53915;SDS011;39827;49.652;18.770;2022-10-16T01:00:50;18.00;;;8.18;;
53915;SDS011;39827;49.652;18.770;2022-10-16T01:03:23;14.57;;;7.72;;
53915;SDS011;39827;49.652;18.770;2022-10-16T01:06:00;16.02;;;7.88;;
53915;SDS011;39827;49.652;18.770;2022-10-16T01:08:34;13.65;;;7.53;;
53915;SDS011;39827;49.652;18.770;2022-10-16T01:11:17;15.40;;;7.50;;
53915;SDS011;39827;49.652;18.770;2022-10-16T01:13:49;15.57;;;7.38;;
53915;SDS011;39827;49.652;18.770;2022-10-16T01:18:54;16.60;;;8.07;;
53915;SDS011;39827;49.652;18.770;2022-10-16T01:21:36;15.38;;;7.57;;
53915;SDS011;39827;49.652;18.770;2022-10-16T01:24:17;13.50;;;7.90;;
53915;SDS011;39827;49.652;18.770;2022-10-16T01:27:07;16.08;;;7.50;;
53915;SDS011;39827;49.652;18.770;2022-10-16T01:29:48;14.88;;;7.55;;
53915;SDS011;39827;49.652;18.770;2022-10-16T01:35:01;26.08;;;8.57;;
53915;SDS011;39827;49.652;18.770;2022-10-16T01:37:38;14.80;;;7.88;;
53915;SDS011;39827;49.652;18.770;2022-10-16T01:40:11;15.50;;;7.53;;
53915;SDS011;39827;49.652;18.770;2022-10-16T01:42:42;15.15;;;7.28;;
53915;SDS011;39827;49.652;18.770;2022-10-16T01:45:11;14.70;;;7.95;;
53915;SDS011;39827;49.652;18.770;2022-10-16T01:47:39;17.05;;;7.75;;
53915;SDS011;39827;49.652;18.770;2022-10-16T01:50:06;14.80;;;7.45;;
53915;SDS011;39827;49.652;18.770;2022-10-16T01:52:37;15.48;;;7.28;;
53915;SDS011;39827;49.652;18.770;2022-10-16T01:55:06;18.45;;;8.10;;
53915;SDS011;39827;49.652;18.770;2022-10-16T01:57:36;15.32;;;7.95;;
53915;SDS011;39827;49.652;18.770;2022-10-16T02:00:09;14.77;;;7.80;;
53915;SDS011;39827;49.652;18.770;2022-10-16T02:02:37;14.23;;;8.10;;
53915;SDS011;39827;49.652;18.770;2022-10-16T02:05:14;16.77;;;8.43;;
53915;SDS011;39827;49.652;18.770;2022-10-16T02:07:52;14.48;;;8.52;;
53915;SDS011;39827;49.652;18.770;2022-10-16T02:10:17;16.25;;;8.27;;
53915;SDS011;39827;49.652;18.770;2022-10-16T02:12:50;20.60;;;9.68;;
53915;SDS011;39827;49.652;18.770;2022-10-16T02:15:27;15.25;;;7.28;;
53915;SDS011;39827;49.652;18.770;2022-10-16T02:17:52;23.60;;;8.38;;
53915;SDS011;39827;49.652;18.770;2022-10-16T02:20:18;17.88;;;8.68;;
53915;SDS011;39827;49.652;18.770;2022-10-16T02:22:50;18.58;;;9.05;;
53915;SDS011;39827;49.652;18.770;2022-10-16T02:25:24;16.60;;;8.38;;
53915;SDS011;39827;49.652;18.770;2022-10-16T02:27:56;18.73;;;8.15;;
53915;SDS011;39827;49.652;18.770;2022-10-16T02:30:45;14.77;;;8.38;;
53915;SDS011;39827;49.652;18.770;2022-10-16T02:33:13;15.30;;;8.68;;
53915;SDS011;39827;49.652;18.770;2022-10-16T02:35:41;15.80;;;9.00;;
53915;SDS011;39827;49.652;18.770;2022-10-16T02:38:08;17.95;;;9.07;;
53915;SDS011;39827;49.652;18.770;2022-10-16T02:40:34;18.20;;;8.93;;
53915;SDS011;39827;49.652;18.770;2022-10-16T02:43:02;17.45;;;9.00;;
53915;SDS011;39827;49.652;18.770;2022-10-16T02:45:28;15.27;;;8.80;;
53915;SDS011;39827;49.652;18.770;2022-10-16T02:47:54;16.75;;;8.68;;
53915;SDS011;39827;49.652;18.770;2022-10-16T02:50:19;16.00;;;9.48;;
53915;SDS011;39827;49.652;18.770;2022-10-16T02:52:45;16.23;;;8.63;;
53915;SDS011;39827;49.652;18.770;2022-10-16T02:55:10;21.75;;;8.55;;
53915;SDS011;39827;49.652;18.770;2022-10-16T02:57:35;17.90;;;8.35;;
53915;SDS011;39827;49.652;18.770;2022-10-16T03:00:03;16.70;;;8.88;;
53915;SDS011;39827;49.652;18.770;2022-10-16T03:02:29;21.65;;;9.20;;
53915;SDS011;39827;49.652;18.770;2022-10-16T03:04:54;17.13;;;8.05;;
53915;SDS011;39827;49.652;18.770;2022-10-16T03:07:20;16.58;;;8.57;;
53915;SDS011;39827;49.652;18.770;2022-10-16T03:09:45;20.52;;;8.75;;
53915;SDS011;39827;49.652;18.770;2022-10-16T03:12:10;18.30;;;8.13;;
53915;SDS011;39827;49.652;18.770;2022-10-16T03:14:37;20.95;;;9.10;;
53915;SDS011;39827;49.652;18.770;2022-10-16T03:17:02;16.00;;;7.95;;
53915;SDS011;39827;49.652;18.770;2022-10-16T03:19:28;15.38;;;8.07;;
53915;SDS011;39827;49.652;18.770;2022-10-16T03:21:53;16.02;;;8.68;;
53915;SDS011;39827;49.652;18.770;2022-10-16T03:24:18;15.52;;;7.95;;
53915;SDS011;39827;49.652;18.770;2022-10-16T03:26:43;15.45;;;8.50;;
53915;SDS011;39827;49.652;18.770;2022-10-16T03:29:09;17.48;;;8.13;;
53915;SDS011;39827;49.652;18.770;2022-10-16T03:31:34;17.40;;;8.80;;
53915;SDS011;39827;49.652;18.770;2022-10-16T03:34:00;17.55;;;9.07;;
53915;SDS011;39827;49.652;18.770;2022-10-16T03:36:25;21.23;;;8.65;;
53915;SDS011;39827;49.652;18.770;2022-10-16T03:38:50;18.38;;;9.27;;
53915;SDS011;39827;49.652;18.770;2022-10-16T03:41:16;16.25;;;8.07;;
53915;SDS011;39827;49.652;18.770;2022-10-16T03:43:41;14.65;;;8.45;;
53915;SDS011;39827;49.652;18.770;2022-10-16T03:46:06;13.73;;;8.30;;
53915;SDS011;39827;49.652;18.770;2022-10-16T03:48:32;14.52;;;8.63;;
53915;SDS011;39827;49.652;18.770;2022-10-16T03:50:57;13.32;;;8.48;;
53915;SDS011;39827;49.652;18.770;2022-10-16T03:53:23;16.55;;;8.77;;
53915;SDS011;39827;49.652;18.770;2022-10-16T03:55:49;17.05;;;8.55;;
53915;SDS011;39827;49.652;18.770;2022-10-16T03:58:14;16.55;;;8.55;;
53915;SDS011;39827;49.652;18.770;2022-10-16T04:00:43;14.05;;;7.95;;
53915;SDS011;39827;49.652;18.770;2022-10-16T04:03:09;14.70;;;8.50;;
53915;SDS011;39827;49.652;18.770;2022-10-16T04:05:35;18.02;;;7.60;;
53915;SDS011;39827;49.652;18.770;2022-10-16T04:08:01;12.65;;;7.85;;
53915;SDS011;39827;49.652;18.770;2022-10-16T04:10:27;17.95;;;8.13;;
53915;SDS011;39827;49.652;18.770;2022-10-16T04:12:52;19.73;;;7.60;;
53915;SDS011;39827;49.652;18.770;2022-10-16T04:15:20;20.73;;;8.50;;
53915;SDS011;39827;49.652;18.770;2022-10-16T04:17:49;13.10;;;8.18;;
53915;SDS011;39827;49.652;18.770;2022-10-16T04:20:14;14.63;;;7.38;;
53915;SDS011;39827;49.652;18.770;2022-10-16T04:22:39;18.17;;;8.43;;
53915;SDS011;39827;49.652;18.770;2022-10-16T04:25:05;15.40;;;8.18;;
53915;SDS011;39827;49.652;18.770;2022-10-16T04:27:31;19.65;;;7.78;;
53915;SDS011;39827;49.652;18.770;2022-10-16T04:29:59;15.02;;;8.13;;
53915;SDS011;39827;49.652;18.770;2022-10-16T04:32:25;14.20;;;7.97;;
53915;SDS011;39827;49.652;18.770;2022-10-16T04:34:51;14.70;;;7.68;;
53915;SDS011;39827;49.652;18.770;2022-10-16T04:37:16;13.70;;;7.93;;
53915;SDS011;39827;49.652;18.770;2022-10-16T04:39:42;16.58;;;8.57;;
53915;SDS011;39827;49.652;18.770;2022-10-16T04:42:07;12.50;;;7.68;;
53915;SDS011;39827;49.652;18.770;2022-10-16T04:44:33;13.52;;;6.70;;
53915;SDS011;39827;49.652;18.770;2022-10-16T04:46:58;14.50;;;7.65;;
53915;SDS011;39827;49.652;18.770;2022-10-16T04:49:23;14.25;;;7.72;;
53915;SDS011;39827;49.652;18.770;2022-10-16T04:51:49;16.00;;;8.10;;
53915;SDS011;39827;49.652;18.770;2022-10-16T04:54:14;16.35;;;7.68;;
53915;SDS011;39827;49.652;18.770;2022-10-16T04:56:39;15.15;;;7.43;;
53915;SDS011;39827;49.652;18.770;2022-10-16T04:59:11;15.43;;;8.25;;
53915;SDS011;39827;49.652;18.770;2022-10-16T05:01:37;14.50;;;7.53;;
53915;SDS011;39827;49.652;18.770;2022-10-16T05:04:03;12.50;;;7.95;;
53915;SDS011;39827;49.652;18.770;2022-10-16T05:06:29;15.73;;;7.85;;
53915;SDS011;39827;49.652;18.770;2022-10-16T05:08:54;13.40;;;7.65;;
53915;SDS011;39827;49.652;18.770;2022-10-16T05:11:20;12.07;;;7.53;;
53915;SDS011;39827;49.652;18.770;2022-10-16T05:13:45;16.80;;;8.18;;
53915;SDS011;39827;49.652;18.770;2022-10-16T05:16:10;16.70;;;8.00;;
53915;SDS011;39827;49.652;18.770;2022-10-16T05:18:36;18.92;;;8.35;;
53915;SDS011;39827;49.652;18.770;2022-10-16T05:21:01;17.63;;;8.10;;
53915;SDS011;39827;49.652;18.770;2022-10-16T05:23:26;19.75;;;7.95;;
53915;SDS011;39827;49.652;18.770;2022-10-16T05:25:52;15.98;;;7.25;;
53915;SDS011;39827;49.652;18.770;2022-10-16T05:28:19;18.15;;;7.32;;
53915;SDS011;39827;49.652;18.770;2022-10-16T05:30:44;17.77;;;7.10;;
53915;SDS011;39827;49.652;18.770;2022-10-16T05:33:10;15.48;;;7.47;;
53915;SDS011;39827;49.652;18.770;2022-10-16T05:35:35;14.77;;;7.95;;
53915;SDS011;39827;49.652;18.770;2022-10-16T05:38:00;15.07;;;7.75;;
53915;SDS011;39827;49.652;18.770;2022-10-16T05:40:26;14.13;;;7.88;;
53915;SDS011;39827;49.652;18.770;2022-10-16T05:42:54;14.98;;;7.88;;
53915;SDS011;39827;49.652;18.770;2022-10-16T05:45:20;14.80;;;8.07;;
53915;SDS011;39827;49.652;18.770;2022-10-16T05:47:45;14.15;;;7.40;;
53915;SDS011;39827;49.652;18.770;2022-10-16T05:50:10;11.88;;;7.25;;
53915;SDS011;39827;49.652;18.770;2022-10-16T05:52:36;16.55;;;7.53;;
53915;SDS011;39827;49.652;18.770;2022-10-16T05:55:01;16.25;;;7.50;;
53915;SDS011;39827;49.652;18.770;2022-10-16T05:57:27;13.02;;;7.78;;
53915;SDS011;39827;49.652;18.770;2022-10-16T05:59:52;13.70;;;7.32;;
53915;SDS011;39827;49.652;18.770;2022-10-16T06:02:18;13.82;;;7.40;;
53915;SDS011;39827;49.652;18.770;2022-10-16T06:04:43;13.35;;;8.07;;
53915;SDS011;39827;49.652;18.770;2022-10-16T06:07:09;12.77;;;7.55;;
53915;SDS011;39827;49.652;18.770;2022-10-16T06:09:34;18.85;;;7.60;;
53915;SDS011;39827;49.652;18.770;2022-10-16T06:11:59;13.27;;;7.18;;
53915;SDS011;39827;49.652;18.770;2022-10-16T06:14:25;15.43;;;7.93;;
53915;SDS011;39827;49.652;18.770;2022-10-16T06:16:50;15.88;;;7.80;;
53915;SDS011;39827;49.652;18.770;2022-10-16T06:19:16;12.45;;;7.32;;
53915;SDS011;39827;49.652;18.770;2022-10-16T06:21:42;19.90;;;8.10;;
53915;SDS011;39827;49.652;18.770;2022-10-16T06:24:08;25.85;;;7.50;;
53915;SDS011;39827;49.652;18.770;2022-10-16T06:26:33;13.82;;;7.45;;
53915;SDS011;39827;49.652;18.770;2022-10-16T06:28:58;18.75;;;7.50;;
53915;SDS011;39827;49.652;18.770;2022-10-16T06:31:24;12.35;;;6.93;;
53915;SDS011;39827;49.652;18.770;2022-10-16T06:33:55;15.77;;;7.10;;
53915;SDS011;39827;49.652;18.770;2022-10-16T06:36:21;13.38;;;7.65;;
53915;SDS011;39827;49.652;18.770;2022-10-16T06:38:47;13.13;;;7.45;;
53915;SDS011;39827;49.652;18.770;2022-10-16T06:41:14;15.20;;;7.05;;
53915;SDS011;39827;49.652;18.770;2022-10-16T06:43:41;15.07;;;7.18;;
53915;SDS011;39827;49.652;18.770;2022-10-16T06:46:09;14.82;;;6.78;;
53915;SDS011;39827;49.652;18.770;2022-10-16T06:48:35;18.45;;;7.72;;
53915;SDS011;39827;49.652;18.770;2022-10-16T06:51:05;12.70;;;6.63;;
53915;SDS011;39827;49.652;18.770;2022-10-16T06:53:40;13.40;;;6.57;;
53915;SDS011;39827;49.652;18.770;2022-10-16T06:56:07;15.30;;;7.18;;
53915;SDS011;39827;49.652;18.770;2022-10-16T06:58:40;11.70;;;6.60;;
53915;SDS011;39827;49.652;18.770;2022-10-16T07:01:07;12.32;;;6.40;;
53915;SDS011;39827;49.652;18.770;2022-10-16T07:03:32;13.52;;;6.60;;
53915;SDS011;39827;49.652;18.770;2022-10-16T07:06:04;17.67;;;6.20;;
53915;SDS011;39827;49.652;18.770;2022-10-16T07:08:40;12.85;;;6.50;;
53915;SDS011;39827;49.652;18.770;2022-10-16T07:11:11;11.43;;;6.60;;
53915;SDS011;39827;49.652;18.770;2022-10-16T07:13:39;10.85;;;6.53;;
53915;SDS011;39827;49.652;18.770;2022-10-16T07:16:13;13.27;;;6.70;;
53915;SDS011;39827;49.652;18.770;2022-10-16T07:18:40;18.33;;;6.75;;
53915;SDS011;39827;49.652;18.770;2022-10-16T07:21:26;9.95;;;5.35;;
53915;SDS011;39827;49.652;18.770;2022-10-16T07:23:54;17.13;;;6.85;;
53915;SDS011;39827;49.652;18.770;2022-10-16T07:26:24;18.20;;;6.55;;
53915;SDS011;39827;49.652;18.770;2022-10-16T07:28:51;13.48;;;6.15;;
53915;SDS011;39827;49.652;18.770;2022-10-16T07:31:18;11.45;;;6.18;;
53915;SDS011;39827;49.652;18.770;2022-10-16T07:33:45;12.13;;;6.25;;
53915;SDS011;39827;49.652;18.770;2022-10-16T07:36:12;9.73;;;5.75;;
53915;SDS011;39827;49.652;18.770;2022-10-16T07:38:39;12.75;;;6.32;;
53915;SDS011;39827;49.652;18.770;2022-10-16T07:41:05;9.63;;;6.18;;
53915;SDS011;39827;49.652;18.770;2022-10-16T07:43:33;13.75;;;6.28;;
53915;SDS011;39827;49.652;18.770;2022-10-16T07:45:59;13.00;;;6.82;;
53915;SDS011;39827;49.652;18.770;2022-10-16T07:48:29;10.18;;;6.43;;
53915;SDS011;39827;49.652;18.770;2022-10-16T07:50:56;18.50;;;6.32;;
53915;SDS011;39827;49.652;18.770;2022-10-16T07:53:23;12.23;;;6.28;;
53915;SDS011;39827;49.652;18.770;2022-10-16T07:55:49;9.57;;;5.80;;
53915;SDS011;39827;49.652;18.770;2022-10-16T07:58:14;12.65;;;6.65;;
53915;SDS011;39827;49.652;18.770;2022-10-16T08:00:39;11.77;;;5.82;;
53915;SDS011;39827;49.652;18.770;2022-10-16T08:03:05;11.70;;;6.40;;
53915;SDS011;39827;49.652;18.770;2022-10-16T08:05:31;16.67;;;6.63;;
53915;SDS011;39827;49.652;18.770;2022-10-16T08:07:57;15.07;;;5.80;;
53915;SDS011;39827;49.652;18.770;2022-10-16T08:10:24;10.93;;;6.45;;
53915;SDS011;39827;49.652;18.770;2022-10-16T08:12:51;11.50;;;6.15;;
53915;SDS011;39827;49.652;18.770;2022-10-16T08:15:17;13.18;;;6.40;;
53915;SDS011;39827;49.652;18.770;2022-10-16T08:17:43;13.88;;;6.50;;
53915;SDS011;39827;49.652;18.770;2022-10-16T08:20:09;12.40;;;6.50;;
53915;SDS011;39827;49.652;18.770;2022-10-16T08:22:35;11.70;;;6.53;;
53915;SDS011;39827;49.652;18.770;2022-10-16T08:25:00;16.05;;;6.53;;
53915;SDS011;39827;49.652;18.770;2022-10-16T08:27:30;11.43;;;6.13;;
53915;SDS011;39827;49.652;18.770;2022-10-16T08:29:56;12.10;;;6.50;;
53915;SDS011;39827;49.652;18.770;2022-10-16T08:32:22;12.70;;;6.43;;
53915;SDS011;39827;49.652;18.770;2022-10-16T08:34:47;11.85;;;6.03;;
53915;SDS011;39827;49.652;18.770;2022-10-16T08:37:12;12.50;;;6.82;;
53915;SDS011;39827;49.652;18.770;2022-10-16T08:39:38;15.98;;;6.85;;
53915;SDS011;39827;49.652;18.770;2022-10-16T08:42:11;11.25;;;6.45;;
53915;SDS011;39827;49.652;18.770;2022-10-16T08:44:42;11.75;;;6.10;;
53915;SDS011;39827;49.652;18.770;2022-10-16T08:49:36;11.07;;;6.18;;
53915;SDS011;39827;49.652;18.770;2022-10-16T08:52:02;12.68;;;6.60;;
53915;SDS011;39827;49.652;18.770;2022-10-16T08:54:32;9.32;;;6.03;;
53915;SDS011;39827;49.652;18.770;2022-10-16T08:57:17;11.93;;;6.50;;
53915;SDS011;39827;49.652;18.770;2022-10-16T08:59:45;14.65;;;6.68;;
53915;SDS011;39827;49.652;18.770;2022-10-16T09:02:30;12.00;;;6.53;;
53915;SDS011;39827;49.652;18.770;2022-10-16T09:10:15;15.05;;;7.10;;
53915;SDS011;39827;49.652;18.770;2022-10-16T09:13:03;14.18;;;7.10;;
53915;SDS011;39827;49.652;18.770;2022-10-16T09:18:48;13.65;;;7.40;;
53915;SDS011;39827;49.652;18.770;2022-10-16T09:24:19;12.35;;;7.13;;
53915;SDS011;39827;49.652;18.770;2022-10-16T09:26:49;16.25;;;7.53;;
53915;SDS011;39827;49.652;18.770;2022-10-16T09:29:15;12.43;;;6.90;;
53915;SDS011;39827;49.652;18.770;2022-10-16T09:31:44;10.25;;;6.60;;
53915;SDS011;39827;49.652;18.770;2022-10-16T09:37:09;10.75;;;6.88;;
53915;SDS011;39827;49.652;18.770;2022-10-16T09:39:49;13.90;;;7.10;;
53915;SDS011;39827;49.652;18.770;2022-10-16T09:42:20;11.40;;;6.38;;
53915;SDS011;39827;49.652;18.770;2022-10-16T09:44:49;13.38;;;7.05;;
53915;SDS011;39827;49.652;18.770;2022-10-16T09:47:18;10.63;;;6.93;;
53915;SDS011;39827;49.652;18.770;2022-10-16T09:49:59;13.30;;;6.70;;
53915;SDS011;39827;49.652;18.770;2022-10-16T09:52:31;10.98;;;6.57;;
53915;SDS011;39827;49.652;18.770;2022-10-16T09:54:58;12.18;;;7.40;;
53915;SDS011;39827;49.652;18.770;2022-10-16T09:57:37;15.77;;;6.80;;
53915;SDS011;39827;49.652;18.770;2022-10-16T10:00:15;12.23;;;6.65;;
53915;SDS011;39827;49.652;18.770;2022-10-16T10:02:41;11.70;;;6.78;;
53915;SDS011;39827;49.652;18.770;2022-10-16T10:05:17;13.18;;;6.88;;
53915;SDS011;39827;49.652;18.770;2022-10-16T10:07:56;11.85;;;7.30;;
53915;SDS011;39827;49.652;18.770;2022-10-16T10:10:25;15.95;;;6.82;;
53915;SDS011;39827;49.652;18.770;2022-10-16T10:12:55;11.23;;;6.70;;
53915;SDS011;39827;49.652;18.770;2022-10-16T10:15:21;9.25;;;6.32;;
53915;SDS011;39827;49.652;18.770;2022-10-16T10:17:52;11.77;;;7.03;;
53915;SDS011;39827;49.652;18.770;2022-10-16T10:22:47;13.13;;;7.43;;
53915;SDS011;39827;49.652;18.770;2022-10-16T10:30:24;13.23;;;7.72;;
53915;SDS011;39827;49.652;18.770;2022-10-16T10:35:31;10.95;;;7.07;;
53915;SDS011;39827;49.652;18.770;2022-10-16T10:43:41;13.00;;;7.53;;
53915;SDS011;39827;49.652;18.770;2022-10-16T10:46:10;13.02;;;7.63;;
53915;SDS011;39827;49.652;18.770;2022-10-16T10:51:31;16.15;;;7.63;;
53915;SDS011;39827;49.652;18.770;2022-10-16T10:54:14;17.58;;;8.10;;
53915;SDS011;39827;49.652;18.770;2022-10-16T10:56:51;14.23;;;8.02;;
53915;SDS011;39827;49.652;18.770;2022-10-16T10:59:35;12.23;;;7.82;;
53915;SDS011;39827;49.652;18.770;2022-10-16T11:07:45;11.85;;;7.47;;
53915;SDS011;39827;49.652;18.770;2022-10-16T11:10:18;17.08;;;8.05;;
53915;SDS011;39827;49.652;18.770;2022-10-16T11:12:51;15.43;;;7.82;;
53915;SDS011;39827;49.652;18.770;2022-10-16T11:15:30;14.80;;;7.88;;
53915;SDS011;39827;49.652;18.770;2022-10-16T11:18:06;12.32;;;7.00;;
53915;SDS011;39827;49.652;18.770;2022-10-16T11:20:40;13.43;;;8.13;;
53915;SDS011;39827;49.652;18.770;2022-10-16T11:23:30;14.75;;;7.93;;
53915;SDS011;39827;49.652;18.770;2022-10-16T11:26:05;12.90;;;6.78;;
53915;SDS011;39827;49.652;18.770;2022-10-16T11:28:45;14.13;;;7.72;;
53915;SDS011;39827;49.652;18.770;2022-10-16T11:31:19;13.27;;;7.70;;
53915;SDS011;39827;49.652;18.770;2022-10-16T11:34:01;11.38;;;7.53;;
53915;SDS011;39827;49.652;18.770;2022-10-16T11:36:42;13.20;;;7.95;;
53915;SDS011;39827;49.652;18.770;2022-10-16T11:39:18;12.38;;;8.00;;
53915;SDS011;39827;49.652;18.770;2022-10-16T11:47:10;17.27;;;8.38;;
53915;SDS011;39827;49.652;18.770;2022-10-16T11:50:01;12.30;;;7.70;;
53915;SDS011;39827;49.652;18.770;2022-10-16T11:52:42;13.30;;;8.80;;
53915;SDS011;39827;49.652;18.770;2022-10-16T11:55:19;12.23;;;7.63;;
53915;SDS011;39827;49.652;18.770;2022-10-16T11:57:49;15.80;;;7.63;;
53915;SDS011;39827;49.652;18.770;2022-10-16T12:00:27;15.43;;;7.57;;
53915;SDS011;39827;49.652;18.770;2022-10-16T12:08:35;13.43;;;7.53;;
53915;SDS011;39827;49.652;18.770;2022-10-16T12:11:08;18.95;;;8.00;;
53915;SDS011;39827;49.652;18.770;2022-10-16T12:16:51;13.52;;;7.60;;
53915;SDS011;39827;49.652;18.770;2022-10-16T12:19:25;13.55;;;7.80;;
53915;SDS011;39827;49.652;18.770;2022-10-16T12:21:54;14.38;;;7.35;;
53915;SDS011;39827;49.652;18.770;2022-10-16T12:24:38;15.98;;;7.40;;
53915;SDS011;39827;49.652;18.770;2022-10-16T12:27:17;11.35;;;8.02;;
53915;SDS011;39827;49.652;18.770;2022-10-16T12:29:49;12.15;;;7.40;;
53915;SDS011;39827;49.652;18.770;2022-10-16T12:32:31;14.70;;;7.25;;
53915;SDS011;39827;49.652;18.770;2022-10-16T12:34:59;12.80;;;7.40;;
53915;SDS011;39827;49.652;18.770;2022-10-16T12:37:29;14.68;;;7.05;;
53915;SDS011;39827;49.652;18.770;2022-10-16T12:39:58;15.10;;;8.20;;
53915;SDS011;39827;49.652;18.770;2022-10-16T12:44:53;12.73;;;7.82;;
53915;SDS011;39827;49.652;18.770;2022-10-16T12:47:23;14.23;;;8.40;;
53915;SDS011;39827;49.652;18.770;2022-10-16T12:49:59;14.15;;;7.95;;
53915;SDS011;39827;49.652;18.770;2022-10-16T12:52:36;18.27;;;7.97;;
53915;SDS011;39827;49.652;18.770;2022-10-16T12:55:04;14.90;;;7.88;;
53915;SDS011;39827;49.652;18.770;2022-10-16T12:57:42;15.70;;;7.65;;
53915;SDS011;39827;49.652;18.770;2022-10-16T13:12:13;15.90;;;7.93;;
53915;SDS011;39827;49.652;18.770;2022-10-16T13:17:19;15.95;;;7.97;;
53915;SDS011;39827;49.652;18.770;2022-10-16T13:20:16;20.38;;;7.78;;
53915;SDS011;39827;49.652;18.770;2022-10-16T13:22:53;12.13;;;7.88;;
53915;SDS011;39827;49.652;18.770;2022-10-16T13:28:10;12.65;;;7.57;;
53915;SDS011;39827;49.652;18.770;2022-10-16T13:30:45;15.45;;;7.47;;
53915;SDS011;39827;49.652;18.770;2022-10-16T13:33:21;11.43;;;7.72;;
53915;SDS011;39827;49.652;18.770;2022-10-16T13:35:56;19.60;;;7.95;;
53915;SDS011;39827;49.652;18.770;2022-10-16T13:38:23;17.00;;;8.40;;
53915;SDS011;39827;49.652;18.770;2022-10-16T13:43:37;13.25;;;8.13;;
53915;SDS011;39827;49.652;18.770;2022-10-16T13:48:44;12.98;;;7.97;;
53915;SDS011;39827;49.652;18.770;2022-10-16T13:51:20;19.95;;;9.05;;
53915;SDS011;39827;49.652;18.770;2022-10-16T13:53:46;14.13;;;8.52;;
53915;SDS011;39827;49.652;18.770;2022-10-16T13:56:20;18.23;;;7.88;;
53915;SDS011;39827;49.652;18.770;2022-10-16T13:59:00;15.65;;;9.10;;
53915;SDS011;39827;49.652;18.770;2022-10-16T14:01:40;17.33;;;8.63;;
53915;SDS011;39827;49.652;18.770;2022-10-16T14:04:09;19.35;;;7.85;;
53915;SDS011;39827;49.652;18.770;2022-10-16T14:06:40;14.73;;;9.40;;
53915;SDS011;39827;49.652;18.770;2022-10-16T14:11:51;13.55;;;8.30;;
53915;SDS011;39827;49.652;18.770;2022-10-16T14:16:44;14.18;;;8.77;;
53915;SDS011;39827;49.652;18.770;2022-10-16T14:19:21;16.38;;;9.07;;
53915;SDS011;39827;49.652;18.770;2022-10-16T14:21:51;18.20;;;8.32;;
53915;SDS011;39827;49.652;18.770;2022-10-16T14:24:24;18.08;;;8.50;;
53915;SDS011;39827;49.652;18.770;2022-10-16T14:26:52;14.52;;;8.55;;
53915;SDS011;39827;49.652;18.770;2022-10-16T14:29:21;17.00;;;8.27;;
53915;SDS011;39827;49.652;18.770;2022-10-16T14:31:59;15.20;;;8.15;;
53915;SDS011;39827;49.652;18.770;2022-10-16T14:34:27;13.68;;;8.07;;
53915;SDS011;39827;49.652;18.770;2022-10-16T14:36:56;14.65;;;8.02;;
53915;SDS011;39827;49.652;18.770;2022-10-16T14:39:27;13.68;;;7.72;;
53915;SDS011;39827;49.652;18.770;2022-10-16T14:41:54;13.85;;;8.00;;
53915;SDS011;39827;49.652;18.770;2022-10-16T14:44:23;16.60;;;8.45;;
53915;SDS011;39827;49.652;18.770;2022-10-16T14:46:54;13.57;;;7.47;;
53915;SDS011;39827;49.652;18.770;2022-10-16T14:49:20;18.67;;;8.15;;
53915;SDS011;39827;49.652;18.770;2022-10-16T14:51:47;14.48;;;8.02;;
53915;SDS011;39827;49.652;18.770;2022-10-16T14:54:13;15.13;;;7.65;;
53915;SDS011;39827;49.652;18.770;2022-10-16T14:56:48;14.68;;;8.43;;
53915;SDS011;39827;49.652;18.770;2022-10-16T14:59:15;15.52;;;9.27;;
53915;SDS011;39827;49.652;18.770;2022-10-16T15:01:53;12.98;;;8.15;;
53915;SDS011;39827;49.652;18.770;2022-10-16T15:04:19;15.90;;;8.90;;
53915;SDS011;39827;49.652;18.770;2022-10-16T15:06:44;14.10;;;8.48;;
53915;SDS011;39827;49.652;18.770;2022-10-16T15:09:09;18.88;;;9.50;;
53915;SDS011;39827;49.652;18.770;2022-10-16T15:11:35;14.77;;;8.65;;
53915;SDS011;39827;49.652;18.770;2022-10-16T15:14:01;15.93;;;8.57;;
53915;SDS011;39827;49.652;18.770;2022-10-16T15:16:28;16.85;;;8.75;;
53915;SDS011;39827;49.652;18.770;2022-10-16T15:18:54;15.82;;;7.90;;
53915;SDS011;39827;49.652;18.770;2022-10-16T15:21:27;21.45;;;9.20;;
53915;SDS011;39827;49.652;18.770;2022-10-16T15:23:54;13.88;;;8.32;;
53915;SDS011;39827;49.652;18.770;2022-10-16T15:26:22;12.25;;;8.02;;
53915;SDS011;39827;49.652;18.770;2022-10-16T15:28:48;14.02;;;7.65;;
53915;SDS011;39827;49.652;18.770;2022-10-16T15:31:13;16.80;;;8.60;;
53915;SDS011;39827;49.652;18.770;2022-10-16T15:33:38;13.50;;;8.05;;
53915;SDS011;39827;49.652;18.770;2022-10-16T15:36:04;16.23;;;7.95;;
53915;SDS011;39827;49.652;18.770;2022-10-16T15:38:30;15.35;;;8.50;;
53915;SDS011;39827;49.652;18.770;2022-10-16T15:40:55;15.07;;;8.75;;
53915;SDS011;39827;49.652;18.770;2022-10-16T15:43:21;14.20;;;8.82;;
53915;SDS011;39827;49.652;18.770;2022-10-16T15:46:09;17.50;;;8.60;;
53915;SDS011;39827;49.652;18.770;2022-10-16T15:48:35;18.50;;;10.77;;
53915;SDS011;39827;49.652;18.770;2022-10-16T15:51:02;14.38;;;8.02;;
53915;SDS011;39827;49.652;18.770;2022-10-16T15:53:30;15.13;;;8.43;;
53915;SDS011;39827;49.652;18.770;2022-10-16T15:55:56;16.08;;;8.45;;
53915;SDS011;39827;49.652;18.770;2022-10-16T15:58:21;19.02;;;9.25;;
53915;SDS011;39827;49.652;18.770;2022-10-16T16:00:54;16.90;;;9.13;;
53915;SDS011;39827;49.652;18.770;2022-10-16T16:03:20;16.88;;;8.60;;
53915;SDS011;39827;49.652;18.770;2022-10-16T16:05:46;21.45;;;9.25;;
53915;SDS011;39827;49.652;18.770;2022-10-16T16:08:11;20.67;;;9.80;;